MMMA/MAM METAR and TAF weather

Enter ICAO airport designator
Station Type Date Time Source
MMMA METAR 2020/11/25 21:40 UTC NOAA

MMMA 252140Z 15004KT 7SM SCT020TCU 29/21 A2993 RMK 8/200 HZY ISOL CI


Station Type Date Time Source
MMMA Decoded METAR 2020/11/25 21:40 UTC NOAA

Matamoros International , Mexico (MMMA) 25-46N 097-32W
Nov 25, 2020 - 04:40 PM EST / 2020.11.25 2140 UTC
Wind: from the SSE (150 degrees) at 5 MPH (4 KT):0
Visibility: 7 mile(s):0
Sky conditions: partly cloudy
Weather: Towering cumulus clouds observed
Temperature: 84 F (29 C)
Dew Point: 69 F (21 C)
Relative Humidity: 62%
Pressure (altimeter): 29.93 in. Hg (1013 hPa)
ob: MMMA 252140Z 15004KT 7SM SCT020TCU 29/21 A2993 RMK 8/200 HZY ISOL CI
cycle: 21

Station Type Date Time Source
MMMA TAF 2020/11/25 18:26 UTC NOAA

TAF MMMA 251719Z 2518/2618 17015KT 6SM HZ BKN020
TEMPO 2521/2601 5SM -RA BKN020CB
FM260300 17008KT 6SM HZ BKN020
BECMG 2608/2609 15005KT 3SM BR HZ
TEMPO 2610/2614 1/2SM FG VV005
FM261600 17006KT 5SM HZ BKN015

Example: see airport list